Anvik, Alaska
Current Conditions -  °F | °C
As of 8:56 PM on Thursday 30 Oct 2014 (Local Time) from PANV Reporting Station
Clear Clear  
Wind Chill:   Ceiling: Unl
Heat Index: 16°   Visibility: 10mi
Dew Point:   Wind: 14mph
Humidity: 68%   Direction: 40°NE
Pressure: 29.69"   Gusts: NA
Location:  62.66°N, 160.21°W
Report Text: PANV 310456Z AUTO 04012KT 10SM CLR M09/M14 A2969 RMK AO1
Loading
Personal Weather Stations






























Interactive Weather Map
Tropical Storm Tracking
New forecast layout! Learn more

10-Day Weather Forecast

Advertisements
Track Severe Weather on mobile